Charlotte Roush — WDE5112 — position and weather

sailwx.info

Track history (hours):
 
Tides and Currents Weather Stations Pressure Air Temp Water Temp Dewpoint Dewpoint Depression Visibility Wind Speed Wind Dir Waves Ship Positions

Charlotte Roush

More information available from US FCC via Universal Licensing System and Coast Guard Vessel Documentation Center.

Last reported at 2014-Jul-31 14:07 UTC. Time now 2014-Aug-01 05:55 UTC.
Position N 29°59' W 090°24'.

Length 35 m; draft 3 m.

Type: Towing. MMSI: 367362230.

Date/timePositionNaut miles runAvg speedWind from/ knotsBaromVisibWave heightAir tempDewpointWater temp
2014-Jul-31 14:07N 29°59' W 090°24'20 5.6
2014-Jul-31 10:29N 30°00' W 090°48'0 0.1
2014-Jul-31 09:32N 30°00' W 090°48'0 0.0
2014-Jul-31 08:33N 30°00' W 090°48'0 0.5
2014-Jul-31 07:33N 30°00' W 090°47'2 0.0
2014-Jul-29 08:32N 30°00' W 090°50'1 0.8
2014-Jul-29 07:12N 29°59' W 090°49'0 0.0
2014-Jul-29 05:33N 29°59' W 090°49'0 0.0
2014-Jul-29 02:31N 29°59' W 090°49'22 1.3
2014-Jul-28 10:05N 29°59' W 090°24'2 3.9
2014-Jul-28 09:33N 29°57' W 090°23'8 3.7
2014-Jul-28 07:30N 29°58' W 090°14'20 1.0
2014-Jul-27 11:31N 30°02' W 090°36'2 2.1
2014-Jul-27 10:33N 30°03' W 090°38'0 0.0
2014-Jul-27 09:29N 30°03' W 090°38'1 0.5
2014-Jul-27 07:21N 30°03' W 090°40'7 6.2
2014-Jul-27 06:14N 30°00' W 090°47'2 0.9
2014-Jul-27 04:31N 29°59' W 090°49'2 1.8
2014-Jul-27 03:29N 30°01' W 090°50'1 0.6
2014-Jul-27 02:30N 30°01' W 090°50'1 0.0
2014-Jul-25 07:31N 30°02' W 090°50'1 0.5
2014-Jul-25 06:07N 30°02' W 090°50'2 1.2
2014-Jul-25 04:20N 29°59' W 090°49'0 0.0
2014-Jul-25 03:33N 29°59' W 090°49'0 0.0
2014-Jul-25 02:31N 29°59' W 090°49'0 0.0
2014-Jul-25 01:33N 29°59' W 090°49'0 0.0
2014-Jul-25 00:32N 29°59' W 090°49'34 0.9
2014-Jul-23 10:14N 29°35' W 090°23'2 2.9
2014-Jul-23 09:32N 29°33' W 090°24'4 4.1
2014-Jul-23 08:33N 29°34' W 090°29'4 3.9
2014-Jul-23 07:34N 29°34' W 090°33'4 3.5
2014-Jul-23 06:33N 29°35' W 090°37'5 3.6
2014-Jul-23 05:18N 29°37' W 090°42'2 2.6
2014-Jul-23 04:28N 29°35' W 090°43'3 2.7
2014-Jul-23 03:24N 29°33' W 090°45'3 3.9
2014-Jul-23 02:31N 29°32' W 090°49'5 4.8
2014-Jul-23 01:33N 29°33' W 090°54'5 4.7
2014-Jul-23 00:31N 29°36' W 090°59'4 4.4
2014-Jul-22 23:33N 29°37' W 091°03'2 2.0
2014-Jul-22 22:33N 29°38' W 091°05'1 1.2
2014-Jul-22 21:33N 29°38' W 091°04'4 3.5
2014-Jul-22 20:28N 29°37' W 090°60'3 3.3
2014-Jul-22 19:27N 29°35' W 090°58'13 3.3
2014-Jul-22 15:33N 29°35' W 090°43'3 1.9
2014-Jul-22 14:12N 29°36' W 090°40'2 3.1
2014-Jul-22 13:33N 29°35' W 090°38'3 3.2
2014-Jul-22 12:34N 29°34' W 090°35'3 3.4
2014-Jul-22 11:33N 29°34' W 090°31'3 3.5
2014-Jul-22 10:34N 29°33' W 090°27'2 1.8
2014-Jul-22 09:33N 29°33' W 090°25'  
Track history (hours):
 
Tides and Currents Weather Stations Pressure Air Temp Water Temp Dewpoint Dewpoint Depression Visibility Wind Speed Wind Dir Waves Ship Positions

Charlotte Roush

More information available from US FCC via Universal Licensing System and Coast Guard Vessel Documentation Center.

Last reported at 2014-Jul-31 14:07 UTC. Time now 2014-Aug-01 05:55 UTC.
Position N 29°59' W 090°24'.

Length 35 m; draft 3 m.

Type: Towing. MMSI: 367362230.

Date/timePositionNaut miles runAvg speedWind from/ knotsBaromVisibWave heightAir tempDewpointWater temp
2014-Jul-31 14:07N 29°59' W 090°24'20 5.6
2014-Jul-31 10:29N 30°00' W 090°48'0 0.1
2014-Jul-31 09:32N 30°00' W 090°48'0 0.0
2014-Jul-31 08:33N 30°00' W 090°48'0 0.5
2014-Jul-31 07:33N 30°00' W 090°47'2 0.0
2014-Jul-29 08:32N 30°00' W 090°50'1 0.8
2014-Jul-29 07:12N 29°59' W 090°49'0 0.0
2014-Jul-29 05:33N 29°59' W 090°49'0 0.0
2014-Jul-29 02:31N 29°59' W 090°49'22 1.3
2014-Jul-28 10:05N 29°59' W 090°24'2 3.9
2014-Jul-28 09:33N 29°57' W 090°23'8 3.7
2014-Jul-28 07:30N 29°58' W 090°14'20 1.0
2014-Jul-27 11:31N 30°02' W 090°36'2 2.1
2014-Jul-27 10:33N 30°03' W 090°38'0 0.0
2014-Jul-27 09:29N 30°03' W 090°38'1 0.5
2014-Jul-27 07:21N 30°03' W 090°40'7 6.2
2014-Jul-27 06:14N 30°00' W 090°47'2 0.9
2014-Jul-27 04:31N 29°59' W 090°49'2 1.8
2014-Jul-27 03:29N 30°01' W 090°50'1 0.6
2014-Jul-27 02:30N 30°01' W 090°50'1 0.0
2014-Jul-25 07:31N 30°02' W 090°50'1 0.5
2014-Jul-25 06:07N 30°02' W 090°50'2 1.2
2014-Jul-25 04:20N 29°59' W 090°49'0 0.0
2014-Jul-25 03:33N 29°59' W 090°49'0 0.0
2014-Jul-25 02:31N 29°59' W 090°49'0 0.0
2014-Jul-25 01:33N 29°59' W 090°49'0 0.0
2014-Jul-25 00:32N 29°59' W 090°49'34 0.9
2014-Jul-23 10:14N 29°35' W 090°23'2 2.9
2014-Jul-23 09:32N 29°33' W 090°24'4 4.1
2014-Jul-23 08:33N 29°34' W 090°29'4 3.9
2014-Jul-23 07:34N 29°34' W 090°33'4 3.5
2014-Jul-23 06:33N 29°35' W 090°37'5 3.6
2014-Jul-23 05:18N 29°37' W 090°42'2 2.6
2014-Jul-23 04:28N 29°35' W 090°43'3 2.7
2014-Jul-23 03:24N 29°33' W 090°45'3 3.9
2014-Jul-23 02:31N 29°32' W 090°49'5 4.8
2014-Jul-23 01:33N 29°33' W 090°54'5 4.7
2014-Jul-23 00:31N 29°36' W 090°59'4 4.4
2014-Jul-22 23:33N 29°37' W 091°03'2 2.0
2014-Jul-22 22:33N 29°38' W 091°05'1 1.2
2014-Jul-22 21:33N 29°38' W 091°04'4 3.5
2014-Jul-22 20:28N 29°37' W 090°60'3 3.3
2014-Jul-22 19:27N 29°35' W 090°58'13 3.3
2014-Jul-22 15:33N 29°35' W 090°43'3 1.9
2014-Jul-22 14:12N 29°36' W 090°40'2 3.1
2014-Jul-22 13:33N 29°35' W 090°38'3 3.2
2014-Jul-22 12:34N 29°34' W 090°35'3 3.4
2014-Jul-22 11:33N 29°34' W 090°31'3 3.5
2014-Jul-22 10:34N 29°33' W 090°27'2 1.8
2014-Jul-22 09:33N 29°33' W 090°25'  

Dump ship's entire track history